sensor_id;sensor_type;location;lat;lon;timestamp;P1;durP1;ratioP1;P2;durP2;ratioP2
30307;SDS011;17114;52.314;8.910;2023-03-01T00:00:03;34.67;;;17.70;;
30307;SDS011;17114;52.314;8.910;2023-03-01T00:02:31;40.53;;;16.98;;
30307;SDS011;17114;52.314;8.910;2023-03-01T00:04:58;35.45;;;16.88;;
30307;SDS011;17114;52.314;8.910;2023-03-01T00:07:25;29.83;;;14.38;;
30307;SDS011;17114;52.314;8.910;2023-03-01T00:09:52;29.48;;;15.07;;
30307;SDS011;17114;52.314;8.910;2023-03-01T00:12:18;32.22;;;15.07;;
30307;SDS011;17114;52.314;8.910;2023-03-01T00:14:46;27.38;;;14.75;;
30307;SDS011;17114;52.314;8.910;2023-03-01T00:17:13;27.13;;;13.77;;
30307;SDS011;17114;52.314;8.910;2023-03-01T00:19:40;28.70;;;14.55;;
30307;SDS011;17114;52.314;8.910;2023-03-01T00:22:07;26.55;;;14.50;;
30307;SDS011;17114;52.314;8.910;2023-03-01T00:24:33;32.38;;;15.07;;
30307;SDS011;17114;52.314;8.910;2023-03-01T00:27:00;27.63;;;14.85;;
30307;SDS011;17114;52.314;8.910;2023-03-01T00:29:27;27.23;;;14.07;;
30307;SDS011;17114;52.314;8.910;2023-03-01T00:31:54;30.92;;;14.55;;
30307;SDS011;17114;52.314;8.910;2023-03-01T00:34:21;28.73;;;15.30;;
30307;SDS011;17114;52.314;8.910;2023-03-01T00:36:48;31.45;;;15.75;;
30307;SDS011;17114;52.314;8.910;2023-03-01T00:39:15;34.92;;;15.40;;
30307;SDS011;17114;52.314;8.910;2023-03-01T00:41:42;30.60;;;15.23;;
30307;SDS011;17114;52.314;8.910;2023-03-01T00:44:09;28.85;;;14.63;;
30307;SDS011;17114;52.314;8.910;2023-03-01T00:46:36;31.50;;;15.43;;
30307;SDS011;17114;52.314;8.910;2023-03-01T00:49:04;31.20;;;15.65;;
30307;SDS011;17114;52.314;8.910;2023-03-01T00:51:31;26.50;;;14.45;;
30307;SDS011;17114;52.314;8.910;2023-03-01T00:53:59;27.52;;;13.63;;
30307;SDS011;17114;52.314;8.910;2023-03-01T00:56:28;25.95;;;14.38;;
30307;SDS011;17114;52.314;8.910;2023-03-01T00:58:57;27.88;;;14.02;;
30307;SDS011;17114;52.314;8.910;2023-03-01T01:01:28;27.30;;;14.00;;
30307;SDS011;17114;52.314;8.910;2023-03-01T01:03:58;26.67;;;14.15;;
30307;SDS011;17114;52.314;8.910;2023-03-01T01:06:28;23.00;;;13.55;;
30307;SDS011;17114;52.314;8.910;2023-03-01T01:08:57;25.40;;;14.75;;
30307;SDS011;17114;52.314;8.910;2023-03-01T01:11:25;28.13;;;14.10;;
30307;SDS011;17114;52.314;8.910;2023-03-01T01:13:53;24.23;;;14.32;;
30307;SDS011;17114;52.314;8.910;2023-03-01T01:16:21;26.33;;;14.52;;
30307;SDS011;17114;52.314;8.910;2023-03-01T01:18:50;28.08;;;15.60;;
30307;SDS011;17114;52.314;8.910;2023-03-01T01:21:18;33.90;;;15.23;;
30307;SDS011;17114;52.314;8.910;2023-03-01T01:23:47;27.67;;;14.30;;
30307;SDS011;17114;52.314;8.910;2023-03-01T01:26:16;25.50;;;14.95;;
30307;SDS011;17114;52.314;8.910;2023-03-01T01:28:45;25.13;;;14.18;;
30307;SDS011;17114;52.314;8.910;2023-03-01T01:31:12;30.50;;;15.15;;
30307;SDS011;17114;52.314;8.910;2023-03-01T01:33:39;27.98;;;15.57;;
30307;SDS011;17114;52.314;8.910;2023-03-01T01:36:06;30.50;;;15.95;;
30307;SDS011;17114;52.314;8.910;2023-03-01T01:38:34;29.02;;;15.18;;
30307;SDS011;17114;52.314;8.910;2023-03-01T01:41:02;27.70;;;15.07;;
30307;SDS011;17114;52.314;8.910;2023-03-01T01:43:31;31.13;;;15.63;;
30307;SDS011;17114;52.314;8.910;2023-03-01T01:46:05;27.70;;;15.77;;
30307;SDS011;17114;52.314;8.910;2023-03-01T01:48:46;27.75;;;15.50;;
30307;SDS011;17114;52.314;8.910;2023-03-01T01:51:19;35.38;;;17.08;;
30307;SDS011;17114;52.314;8.910;2023-03-01T01:53:53;52.53;;;20.05;;
30307;SDS011;17114;52.314;8.910;2023-03-01T01:56:24;27.27;;;15.40;;
30307;SDS011;17114;52.314;8.910;2023-03-01T01:58:55;29.45;;;15.35;;
30307;SDS011;17114;52.314;8.910;2023-03-01T02:01:22;30.75;;;15.60;;
30307;SDS011;17114;52.314;8.910;2023-03-01T02:03:49;29.50;;;16.75;;
30307;SDS011;17114;52.314;8.910;2023-03-01T02:08:45;35.03;;;17.05;;
30307;SDS011;17114;52.314;8.910;2023-03-01T02:11:15;29.95;;;16.33;;
30307;SDS011;17114;52.314;8.910;2023-03-01T02:13:43;27.08;;;15.50;;
30307;SDS011;17114;52.314;8.910;2023-03-01T02:16:11;30.15;;;16.05;;
30307;SDS011;17114;52.314;8.910;2023-03-01T02:18:41;29.50;;;15.38;;
30307;SDS011;17114;52.314;8.910;2023-03-01T02:21:15;29.33;;;15.48;;
30307;SDS011;17114;52.314;8.910;2023-03-01T02:23:52;28.40;;;15.55;;
30307;SDS011;17114;52.314;8.910;2023-03-01T02:29:03;24.42;;;13.77;;
30307;SDS011;17114;52.314;8.910;2023-03-01T02:31:31;27.60;;;15.65;;
30307;SDS011;17114;52.314;8.910;2023-03-01T02:36:49;25.67;;;15.00;;
30307;SDS011;17114;52.314;8.910;2023-03-01T02:39:27;28.10;;;15.45;;
30307;SDS011;17114;52.314;8.910;2023-03-01T02:41:58;29.67;;;14.85;;
30307;SDS011;17114;52.314;8.910;2023-03-01T02:44:27;26.83;;;15.63;;
30307;SDS011;17114;52.314;8.910;2023-03-01T02:46:55;25.55;;;14.82;;
30307;SDS011;17114;52.314;8.910;2023-03-01T02:54:35;27.25;;;16.45;;
30307;SDS011;17114;52.314;8.910;2023-03-01T02:57:07;31.38;;;16.58;;
30307;SDS011;17114;52.314;8.910;2023-03-01T02:59:35;28.42;;;15.27;;
30307;SDS011;17114;52.314;8.910;2023-03-01T03:02:22;29.40;;;15.07;;
30307;SDS011;17114;52.314;8.910;2023-03-01T03:05:07;31.58;;;16.15;;
30307;SDS011;17114;52.314;8.910;2023-03-01T03:07:39;27.70;;;15.10;;
30307;SDS011;17114;52.314;8.910;2023-03-01T03:10:10;30.23;;;16.65;;
30307;SDS011;17114;52.314;8.910;2023-03-01T03:12:40;30.30;;;16.13;;
30307;SDS011;17114;52.314;8.910;2023-03-01T03:15:07;28.98;;;15.70;;
30307;SDS011;17114;52.314;8.910;2023-03-01T03:17:36;30.45;;;15.90;;
30307;SDS011;17114;52.314;8.910;2023-03-01T03:20:04;30.10;;;15.38;;
30307;SDS011;17114;52.314;8.910;2023-03-01T03:22:40;25.98;;;15.88;;
30307;SDS011;17114;52.314;8.910;2023-03-01T03:25:07;28.80;;;15.57;;
30307;SDS011;17114;52.314;8.910;2023-03-01T03:27:38;26.92;;;14.88;;
30307;SDS011;17114;52.314;8.910;2023-03-01T03:30:11;27.10;;;15.35;;
30307;SDS011;17114;52.314;8.910;2023-03-01T03:32:41;30.33;;;15.60;;
30307;SDS011;17114;52.314;8.910;2023-03-01T03:35:23;30.95;;;16.00;;
30307;SDS011;17114;52.314;8.910;2023-03-01T03:37:51;27.08;;;15.38;;
30307;SDS011;17114;52.314;8.910;2023-03-01T03:40:36;27.35;;;14.30;;
30307;SDS011;17114;52.314;8.910;2023-03-01T03:43:08;26.48;;;14.70;;
30307;SDS011;17114;52.314;8.910;2023-03-01T03:45:36;27.83;;;14.35;;
30307;SDS011;17114;52.314;8.910;2023-03-01T03:48:04;24.92;;;15.07;;
30307;SDS011;17114;52.314;8.910;2023-03-01T03:50:34;26.55;;;14.75;;
30307;SDS011;17114;52.314;8.910;2023-03-01T03:53:01;24.77;;;14.23;;
30307;SDS011;17114;52.314;8.910;2023-03-01T03:55:30;28.85;;;15.32;;
30307;SDS011;17114;52.314;8.910;2023-03-01T03:58:00;25.67;;;14.40;;
30307;SDS011;17114;52.314;8.910;2023-03-01T04:00:37;25.23;;;14.18;;
30307;SDS011;17114;52.314;8.910;2023-03-01T04:03:06;28.55;;;16.50;;
30307;SDS011;17114;52.314;8.910;2023-03-01T04:05:33;26.35;;;14.43;;
30307;SDS011;17114;52.314;8.910;2023-03-01T04:08:01;26.63;;;14.40;;
30307;SDS011;17114;52.314;8.910;2023-03-01T04:10:29;26.55;;;15.10;;
30307;SDS011;17114;52.314;8.910;2023-03-01T04:12:57;24.58;;;14.68;;
30307;SDS011;17114;52.314;8.910;2023-03-01T04:15:25;27.77;;;14.40;;
30307;SDS011;17114;52.314;8.910;2023-03-01T04:17:53;28.23;;;13.98;;
30307;SDS011;17114;52.314;8.910;2023-03-01T04:20:22;29.75;;;14.98;;
30307;SDS011;17114;52.314;8.910;2023-03-01T04:22:52;27.30;;;14.65;;
30307;SDS011;17114;52.314;8.910;2023-03-01T04:25:23;30.20;;;16.05;;
30307;SDS011;17114;52.314;8.910;2023-03-01T04:27:50;27.77;;;14.23;;
30307;SDS011;17114;52.314;8.910;2023-03-01T04:30:18;24.50;;;13.48;;
30307;SDS011;17114;52.314;8.910;2023-03-01T04:32:44;26.38;;;14.98;;
30307;SDS011;17114;52.314;8.910;2023-03-01T04:35:11;27.35;;;14.18;;
30307;SDS011;17114;52.314;8.910;2023-03-01T04:37:38;27.85;;;15.20;;
30307;SDS011;17114;52.314;8.910;2023-03-01T04:40:05;21.92;;;13.18;;
30307;SDS011;17114;52.314;8.910;2023-03-01T04:42:42;23.75;;;14.52;;
30307;SDS011;17114;52.314;8.910;2023-03-01T04:45:09;27.33;;;15.45;;
30307;SDS011;17114;52.314;8.910;2023-03-01T04:47:40;27.05;;;15.13;;
30307;SDS011;17114;52.314;8.910;2023-03-01T04:50:09;31.70;;;15.85;;
30307;SDS011;17114;52.314;8.910;2023-03-01T04:52:39;34.75;;;16.13;;
30307;SDS011;17114;52.314;8.910;2023-03-01T04:55:06;27.85;;;14.45;;
30307;SDS011;17114;52.314;8.910;2023-03-01T04:57:34;29.50;;;15.30;;
30307;SDS011;17114;52.314;8.910;2023-03-01T05:00:01;25.70;;;15.55;;
30307;SDS011;17114;52.314;8.910;2023-03-01T05:05:20;30.48;;;14.43;;
30307;SDS011;17114;52.314;8.910;2023-03-01T05:07:53;31.15;;;15.73;;
30307;SDS011;17114;52.314;8.910;2023-03-01T05:10:21;27.05;;;14.75;;
30307;SDS011;17114;52.314;8.910;2023-03-01T05:12:47;28.70;;;15.15;;
30307;SDS011;17114;52.314;8.910;2023-03-01T05:15:14;27.35;;;15.23;;
30307;SDS011;17114;52.314;8.910;2023-03-01T05:17:42;27.90;;;14.48;;
30307;SDS011;17114;52.314;8.910;2023-03-01T05:20:10;28.13;;;14.80;;
30307;SDS011;17114;52.314;8.910;2023-03-01T05:22:37;29.70;;;15.13;;
30307;SDS011;17114;52.314;8.910;2023-03-01T05:25:05;27.70;;;15.52;;
30307;SDS011;17114;52.314;8.910;2023-03-01T05:27:33;31.85;;;15.25;;
30307;SDS011;17114;52.314;8.910;2023-03-01T05:30:02;32.30;;;15.13;;
30307;SDS011;17114;52.314;8.910;2023-03-01T05:32:43;27.90;;;15.52;;
30307;SDS011;17114;52.314;8.910;2023-03-01T05:35:15;29.65;;;14.40;;
30307;SDS011;17114;52.314;8.910;2023-03-01T05:37:44;28.73;;;15.52;;
30307;SDS011;17114;52.314;8.910;2023-03-01T05:40:16;26.25;;;14.80;;
30307;SDS011;17114;52.314;8.910;2023-03-01T05:42:48;28.90;;;16.23;;
30307;SDS011;17114;52.314;8.910;2023-03-01T05:45:19;27.15;;;15.63;;
30307;SDS011;17114;52.314;8.910;2023-03-01T05:47:47;30.70;;;15.45;;
30307;SDS011;17114;52.314;8.910;2023-03-01T05:50:17;28.55;;;14.90;;
30307;SDS011;17114;52.314;8.910;2023-03-01T05:52:48;30.92;;;15.00;;
30307;SDS011;17114;52.314;8.910;2023-03-01T05:55:18;30.33;;;14.90;;
30307;SDS011;17114;52.314;8.910;2023-03-01T05:57:47;31.83;;;15.00;;
30307;SDS011;17114;52.314;8.910;2023-03-01T06:00:16;30.30;;;16.35;;
30307;SDS011;17114;52.314;8.910;2023-03-01T06:02:45;29.88;;;15.23;;
30307;SDS011;17114;52.314;8.910;2023-03-01T06:05:12;24.75;;;14.15;;
30307;SDS011;17114;52.314;8.910;2023-03-01T06:07:40;36.50;;;16.70;;
30307;SDS011;17114;52.314;8.910;2023-03-01T06:10:08;28.13;;;14.93;;
30307;SDS011;17114;52.314;8.910;2023-03-01T06:12:37;28.08;;;14.77;;
30307;SDS011;17114;52.314;8.910;2023-03-01T06:15:05;27.38;;;14.90;;
30307;SDS011;17114;52.314;8.910;2023-03-01T06:17:34;29.17;;;14.95;;
30307;SDS011;17114;52.314;8.910;2023-03-01T06:20:13;27.88;;;14.38;;
30307;SDS011;17114;52.314;8.910;2023-03-01T06:22:50;27.70;;;15.70;;
30307;SDS011;17114;52.314;8.910;2023-03-01T06:25:19;27.55;;;14.88;;
30307;SDS011;17114;52.314;8.910;2023-03-01T06:27:48;26.52;;;14.73;;
30307;SDS011;17114;52.314;8.910;2023-03-01T06:30:16;39.58;;;15.35;;
30307;SDS011;17114;52.314;8.910;2023-03-01T06:32:44;29.15;;;15.50;;
30307;SDS011;17114;52.314;8.910;2023-03-01T06:35:12;30.25;;;15.05;;
30307;SDS011;17114;52.314;8.910;2023-03-01T06:37:40;25.63;;;13.80;;
30307;SDS011;17114;52.314;8.910;2023-03-01T06:40:07;28.23;;;15.27;;
30307;SDS011;17114;52.314;8.910;2023-03-01T06:42:38;28.67;;;15.15;;
30307;SDS011;17114;52.314;8.910;2023-03-01T06:45:07;29.33;;;15.40;;
30307;SDS011;17114;52.314;8.910;2023-03-01T06:47:35;28.30;;;15.30;;
30307;SDS011;17114;52.314;8.910;2023-03-01T06:50:02;28.73;;;15.38;;
30307;SDS011;17114;52.314;8.910;2023-03-01T06:52:30;26.13;;;13.98;;
30307;SDS011;17114;52.314;8.910;2023-03-01T06:54:57;33.17;;;15.35;;
30307;SDS011;17114;52.314;8.910;2023-03-01T06:57:24;29.35;;;14.30;;
30307;SDS011;17114;52.314;8.910;2023-03-01T06:59:52;30.73;;;15.75;;
30307;SDS011;17114;52.314;8.910;2023-03-01T07:02:26;26.20;;;15.48;;
30307;SDS011;17114;52.314;8.910;2023-03-01T07:04:53;29.98;;;14.68;;
30307;SDS011;17114;52.314;8.910;2023-03-01T07:07:20;25.77;;;14.77;;
30307;SDS011;17114;52.314;8.910;2023-03-01T07:09:48;34.80;;;17.13;;
30307;SDS011;17114;52.314;8.910;2023-03-01T07:12:16;31.67;;;15.57;;
30307;SDS011;17114;52.314;8.910;2023-03-01T07:14:43;29.52;;;16.80;;
30307;SDS011;17114;52.314;8.910;2023-03-01T07:17:10;34.67;;;17.92;;
30307;SDS011;17114;52.314;8.910;2023-03-01T07:19:37;28.45;;;16.73;;
30307;SDS011;17114;52.314;8.910;2023-03-01T07:22:04;35.13;;;16.67;;
30307;SDS011;17114;52.314;8.910;2023-03-01T07:24:34;35.72;;;17.77;;
30307;SDS011;17114;52.314;8.910;2023-03-01T07:27:01;34.40;;;18.05;;
30307;SDS011;17114;52.314;8.910;2023-03-01T07:29:29;28.98;;;16.45;;
30307;SDS011;17114;52.314;8.910;2023-03-01T07:31:56;34.42;;;17.17;;
30307;SDS011;17114;52.314;8.910;2023-03-01T07:34:23;29.65;;;17.65;;
30307;SDS011;17114;52.314;8.910;2023-03-01T07:36:51;28.52;;;19.02;;
30307;SDS011;17114;52.314;8.910;2023-03-01T07:39:18;30.55;;;19.10;;
30307;SDS011;17114;52.314;8.910;2023-03-01T07:41:47;35.65;;;21.38;;
30307;SDS011;17114;52.314;8.910;2023-03-01T07:44:15;35.50;;;20.27;;
30307;SDS011;17114;52.314;8.910;2023-03-01T07:46:43;28.73;;;18.33;;
30307;SDS011;17114;52.314;8.910;2023-03-01T07:49:10;27.02;;;16.98;;
30307;SDS011;17114;52.314;8.910;2023-03-01T07:51:38;22.80;;;15.23;;
30307;SDS011;17114;52.314;8.910;2023-03-01T07:54:05;26.73;;;15.65;;
30307;SDS011;17114;52.314;8.910;2023-03-01T07:56:34;26.52;;;15.90;;
30307;SDS011;17114;52.314;8.910;2023-03-01T07:59:04;24.13;;;15.07;;
30307;SDS011;17114;52.314;8.910;2023-03-01T08:01:31;24.50;;;14.85;;
30307;SDS011;17114;52.314;8.910;2023-03-01T08:03:57;18.98;;;13.65;;
30307;SDS011;17114;52.314;8.910;2023-03-01T08:06:25;20.92;;;13.85;;
30307;SDS011;17114;52.314;8.910;2023-03-01T08:08:52;26.05;;;14.55;;
30307;SDS011;17114;52.314;8.910;2023-03-01T08:11:21;21.95;;;13.50;;
30307;SDS011;17114;52.314;8.910;2023-03-01T08:13:49;28.80;;;14.70;;
30307;SDS011;17114;52.314;8.910;2023-03-01T08:16:19;23.25;;;14.30;;
30307;SDS011;17114;52.314;8.910;2023-03-01T08:18:46;20.75;;;13.90;;
30307;SDS011;17114;52.314;8.910;2023-03-01T08:21:14;22.23;;;14.07;;
30307;SDS011;17114;52.314;8.910;2023-03-01T08:23:43;21.38;;;13.73;;
30307;SDS011;17114;52.314;8.910;2023-03-01T08:26:11;21.50;;;13.90;;
30307;SDS011;17114;52.314;8.910;2023-03-01T08:28:43;20.45;;;14.23;;
30307;SDS011;17114;52.314;8.910;2023-03-01T08:31:23;19.33;;;12.95;;
30307;SDS011;17114;52.314;8.910;2023-03-01T08:33:58;20.88;;;12.93;;
30307;SDS011;17114;52.314;8.910;2023-03-01T08:36:30;19.65;;;13.10;;
30307;SDS011;17114;52.314;8.910;2023-03-01T08:38:59;22.02;;;14.55;;
30307;SDS011;17114;52.314;8.910;2023-03-01T08:41:26;20.50;;;13.82;;
30307;SDS011;17114;52.314;8.910;2023-03-01T08:43:53;22.35;;;15.75;;
30307;SDS011;17114;52.314;8.910;2023-03-01T08:46:34;23.83;;;15.45;;
30307;SDS011;17114;52.314;8.910;2023-03-01T08:49:06;24.70;;;14.48;;
30307;SDS011;17114;52.314;8.910;2023-03-01T08:51:34;20.27;;;14.00;;
30307;SDS011;17114;52.314;8.910;2023-03-01T08:54:05;20.40;;;13.55;;
30307;SDS011;17114;52.314;8.910;2023-03-01T08:56:37;23.60;;;13.23;;
30307;SDS011;17114;52.314;8.910;2023-03-01T08:59:04;21.88;;;14.82;;
30307;SDS011;17114;52.314;8.910;2023-03-01T09:01:30;24.02;;;13.80;;
30307;SDS011;17114;52.314;8.910;2023-03-01T09:03:57;20.70;;;14.05;;
30307;SDS011;17114;52.314;8.910;2023-03-01T09:06:25;21.73;;;12.88;;
30307;SDS011;17114;52.314;8.910;2023-03-01T09:08:52;19.58;;;13.48;;
30307;SDS011;17114;52.314;8.910;2023-03-01T09:11:21;24.88;;;12.88;;
30307;SDS011;17114;52.314;8.910;2023-03-01T09:13:49;20.83;;;12.32;;
30307;SDS011;17114;52.314;8.910;2023-03-01T09:16:17;18.65;;;11.55;;
30307;SDS011;17114;52.314;8.910;2023-03-01T09:18:48;18.00;;;12.35;;
30307;SDS011;17114;52.314;8.910;2023-03-01T09:21:16;16.23;;;10.88;;
30307;SDS011;17114;52.314;8.910;2023-03-01T09:24:02;18.13;;;11.35;;
30307;SDS011;17114;52.314;8.910;2023-03-01T09:26:29;19.88;;;11.57;;
30307;SDS011;17114;52.314;8.910;2023-03-01T09:28:57;16.40;;;10.07;;
30307;SDS011;17114;52.314;8.910;2023-03-01T09:31:24;16.88;;;10.23;;
30307;SDS011;17114;52.314;8.910;2023-03-01T09:33:52;17.30;;;10.40;;
30307;SDS011;17114;52.314;8.910;2023-03-01T09:36:21;18.52;;;9.65;;
30307;SDS011;17114;52.314;8.910;2023-03-01T09:38:50;15.55;;;9.63;;
30307;SDS011;17114;52.314;8.910;2023-03-01T09:43:50;13.52;;;9.30;;
30307;SDS011;17114;52.314;8.910;2023-03-01T09:46:22;16.33;;;9.18;;
30307;SDS011;17114;52.314;8.910;2023-03-01T09:48:52;13.20;;;8.98;;
30307;SDS011;17114;52.314;8.910;2023-03-01T09:51:24;16.20;;;9.55;;
30307;SDS011;17114;52.314;8.910;2023-03-01T09:53:57;12.30;;;8.95;;
30307;SDS011;17114;52.314;8.910;2023-03-01T09:56:29;11.75;;;7.95;;
30307;SDS011;17114;52.314;8.910;2023-03-01T09:59:06;13.40;;;7.97;;
30307;SDS011;17114;52.314;8.910;2023-03-01T10:09:47;15.07;;;8.18;;
30307;SDS011;17114;52.314;8.910;2023-03-01T10:12:16;17.58;;;8.02;;
30307;SDS011;17114;52.314;8.910;2023-03-01T10:14:58;13.40;;;7.65;;
30307;SDS011;17114;52.314;8.910;2023-03-01T10:17:43;15.23;;;7.53;;
30307;SDS011;17114;52.314;8.910;2023-03-01T10:20:22;14.27;;;7.88;;
30307;SDS011;17114;52.314;8.910;2023-03-01T10:22:56;12.40;;;7.47;;
30307;SDS011;17114;52.314;8.910;2023-03-01T10:28:16;14.77;;;8.48;;
30307;SDS011;17114;52.314;8.910;2023-03-01T10:30:49;11.07;;;7.25;;
30307;SDS011;17114;52.314;8.910;2023-03-01T10:33:32;12.55;;;7.70;;
30307;SDS011;17114;52.314;8.910;2023-03-01T10:36:03;16.45;;;8.75;;
30307;SDS011;17114;52.314;8.910;2023-03-01T10:38:31;13.57;;;8.02;;
30307;SDS011;17114;52.314;8.910;2023-03-01T10:41:25;10.73;;;6.85;;
30307;SDS011;17114;52.314;8.910;2023-03-01T10:43:54;10.70;;;6.78;;
30307;SDS011;17114;52.314;8.910;2023-03-01T10:46:33;11.25;;;6.90;;
30307;SDS011;17114;52.314;8.910;2023-03-01T10:49:06;12.73;;;6.55;;
30307;SDS011;17114;52.314;8.910;2023-03-01T10:51:39;13.73;;;7.30;;
30307;SDS011;17114;52.314;8.910;2023-03-01T10:54:20;13.73;;;7.30;;
30307;SDS011;17114;52.314;8.910;2023-03-01T10:56:56;13.55;;;7.38;;
30307;SDS011;17114;52.314;8.910;2023-03-01T10:59:29;12.05;;;7.00;;
30307;SDS011;17114;52.314;8.910;2023-03-01T11:04:59;12.88;;;7.38;;
30307;SDS011;17114;52.314;8.910;2023-03-01T11:07:29;13.00;;;7.07;;
30307;SDS011;17114;52.314;8.910;2023-03-01T11:09:56;11.15;;;6.78;;
30307;SDS011;17114;52.314;8.910;2023-03-01T11:12:23;11.95;;;7.10;;
30307;SDS011;17114;52.314;8.910;2023-03-01T11:14:53;14.25;;;6.95;;
30307;SDS011;17114;52.314;8.910;2023-03-01T11:17:21;13.90;;;7.63;;
30307;SDS011;17114;52.314;8.910;2023-03-01T11:22:47;13.50;;;6.90;;
30307;SDS011;17114;52.314;8.910;2023-03-01T11:25:39;10.65;;;6.13;;
30307;SDS011;17114;52.314;8.910;2023-03-01T11:28:13;11.00;;;6.28;;
30307;SDS011;17114;52.314;8.910;2023-03-01T11:33:53;11.90;;;6.43;;
30307;SDS011;17114;52.314;8.910;2023-03-01T11:36:30;10.07;;;5.75;;
30307;SDS011;17114;52.314;8.910;2023-03-01T11:39:15;9.57;;;5.57;;
30307;SDS011;17114;52.314;8.910;2023-03-01T11:41:43;11.27;;;6.25;;
30307;SDS011;17114;52.314;8.910;2023-03-01T11:44:25;7.32;;;4.32;;
30307;SDS011;17114;52.314;8.910;2023-03-01T11:49:51;9.85;;;6.13;;
30307;SDS011;17114;52.314;8.910;2023-03-01T11:55:27;9.95;;;5.97;;
30307;SDS011;17114;52.314;8.910;2023-03-01T12:06:12;9.32;;;5.43;;
30307;SDS011;17114;52.314;8.910;2023-03-01T12:11:43;15.15;;;5.75;;
30307;SDS011;17114;52.314;8.910;2023-03-01T12:17:06;11.60;;;5.55;;
30307;SDS011;17114;52.314;8.910;2023-03-01T12:25:10;9.20;;;6.35;;
30307;SDS011;17114;52.314;8.910;2023-03-01T12:38:41;11.27;;;6.68;;
30307;SDS011;17114;52.314;8.910;2023-03-01T12:44:21;9.93;;;6.30;;
30307;SDS011;17114;52.314;8.910;2023-03-01T12:47:05;12.13;;;6.65;;
30307;SDS011;17114;52.314;8.910;2023-03-01T12:49:41;15.50;;;7.30;;
30307;SDS011;17114;52.314;8.910;2023-03-01T12:55:44;12.40;;;6.83;;
30307;SDS011;17114;52.314;8.910;2023-03-01T13:04:31;13.38;;;6.00;;
30307;SDS011;17114;52.314;8.910;2023-03-01T13:07:16;21.42;;;6.68;;
30307;SDS011;17114;52.314;8.910;2023-03-01T13:13:02;12.43;;;6.70;;
30307;SDS011;17114;52.314;8.910;2023-03-01T13:15:36;10.40;;;5.88;;
30307;SDS011;17114;52.314;8.910;2023-03-01T13:20:46;17.52;;;6.57;;
30307;SDS011;17114;52.314;8.910;2023-03-01T13:36:45;8.68;;;5.28;;
30307;SDS011;17114;52.314;8.910;2023-03-01T13:39:04;11.45;;;5.65;;
30307;SDS011;17114;52.314;8.910;2023-03-01T13:49:56;9.63;;;5.32;;
30307;SDS011;17114;52.314;8.910;2023-03-01T13:52:44;9.80;;;5.00;;
30307;SDS011;17114;52.314;8.910;2023-03-01T13:55:23;7.82;;;4.68;;
30307;SDS011;17114;52.314;8.910;2023-03-01T13:57:54;12.15;;;4.53;;
30307;SDS011;17114;52.314;8.910;2023-03-01T14:03:14;8.10;;;4.72;;
30307;SDS011;17114;52.314;8.910;2023-03-01T14:06:12;9.52;;;4.38;;
30307;SDS011;17114;52.314;8.910;2023-03-01T14:08:44;10.15;;;4.00;;
30307;SDS011;17114;52.314;8.910;2023-03-01T14:14:18;6.70;;;4.10;;
30307;SDS011;17114;52.314;8.910;2023-03-01T14:19:42;6.15;;;3.97;;
30307;SDS011;17114;52.314;8.910;2023-03-01T14:24:57;5.30;;;3.20;;
30307;SDS011;17114;52.314;8.910;2023-03-01T14:27:30;6.40;;;3.83;;
30307;SDS011;17114;52.314;8.910;2023-03-01T14:30:17;7.28;;;3.75;;
30307;SDS011;17114;52.314;8.910;2023-03-01T14:35:28;4.53;;;3.10;;
30307;SDS011;17114;52.314;8.910;2023-03-01T14:37:57;6.80;;;4.30;;
30307;SDS011;17114;52.314;8.910;2023-03-01T14:40:26;4.82;;;3.25;;
30307;SDS011;17114;52.314;8.910;2023-03-01T14:42:55;5.35;;;3.20;;
30307;SDS011;17114;52.314;8.910;2023-03-01T14:45:25;5.68;;;2.95;;
30307;SDS011;17114;52.314;8.910;2023-03-01T14:47:54;5.65;;;3.42;;
30307;SDS011;17114;52.314;8.910;2023-03-01T14:52:55;5.28;;;2.67;;
30307;SDS011;17114;52.314;8.910;2023-03-01T14:55:35;4.88;;;3.10;;
30307;SDS011;17114;52.314;8.910;2023-03-01T14:58:14;5.45;;;3.00;;
30307;SDS011;17114;52.314;8.910;2023-03-01T15:00:54;6.78;;;3.58;;
30307;SDS011;17114;52.314;8.910;2023-03-01T15:06:18;5.90;;;2.97;;
30307;SDS011;17114;52.314;8.910;2023-03-01T15:08:53;6.95;;;3.10;;
30307;SDS011;17114;52.314;8.910;2023-03-01T15:11:24;5.20;;;3.35;;
30307;SDS011;17114;52.314;8.910;2023-03-01T15:13:55;4.95;;;3.08;;
30307;SDS011;17114;52.314;8.910;2023-03-01T15:16:32;6.90;;;3.60;;
30307;SDS011;17114;52.314;8.910;2023-03-01T15:19:00;5.78;;;3.15;;
30307;SDS011;17114;52.314;8.910;2023-03-01T15:21:34;8.13;;;3.22;;
30307;SDS011;17114;52.314;8.910;2023-03-01T15:26:50;10.23;;;6.35;;
30307;SDS011;17114;52.314;8.910;2023-03-01T15:29:28;8.48;;;3.05;;
30307;SDS011;17114;52.314;8.910;2023-03-01T15:32:01;6.32;;;3.92;;
30307;SDS011;17114;52.314;8.910;2023-03-01T15:34:31;9.75;;;4.18;;
30307;SDS011;17114;52.314;8.910;2023-03-01T15:37:00;6.50;;;3.63;;
30307;SDS011;17114;52.314;8.910;2023-03-01T15:39:36;6.72;;;3.45;;
30307;SDS011;17114;52.314;8.910;2023-03-01T15:42:06;7.72;;;3.80;;
30307;SDS011;17114;52.314;8.910;2023-03-01T15:44:37;7.47;;;4.25;;
30307;SDS011;17114;52.314;8.910;2023-03-01T15:50:20;7.97;;;3.75;;
30307;SDS011;17114;52.314;8.910;2023-03-01T15:52:49;7.13;;;4.18;;
30307;SDS011;17114;52.314;8.910;2023-03-01T15:55:19;7.53;;;3.80;;
30307;SDS011;17114;52.314;8.910;2023-03-01T16:00:45;6.45;;;3.75;;
30307;SDS011;17114;52.314;8.910;2023-03-01T16:03:26;7.32;;;4.95;;
30307;SDS011;17114;52.314;8.910;2023-03-01T16:05:53;6.07;;;3.70;;
30307;SDS011;17114;52.314;8.910;2023-03-01T16:08:20;5.10;;;3.33;;
30307;SDS011;17114;52.314;8.910;2023-03-01T16:10:46;7.57;;;3.88;;
30307;SDS011;17114;52.314;8.910;2023-03-01T16:13:16;6.78;;;4.00;;
30307;SDS011;17114;52.314;8.910;2023-03-01T16:15:43;7.20;;;3.90;;
30307;SDS011;17114;52.314;8.910;2023-03-01T16:18:10;7.63;;;3.88;;
30307;SDS011;17114;52.314;8.910;2023-03-01T16:20:38;5.95;;;4.15;;
30307;SDS011;17114;52.314;8.910;2023-03-01T16:23:06;6.47;;;3.58;;
30307;SDS011;17114;52.314;8.910;2023-03-01T16:25:34;8.75;;;4.00;;
30307;SDS011;17114;52.314;8.910;2023-03-01T16:28:02;8.07;;;4.47;;
30307;SDS011;17114;52.314;8.910;2023-03-01T16:30:35;8.48;;;5.07;;
30307;SDS011;17114;52.314;8.910;2023-03-01T16:33:06;12.15;;;5.57;;
30307;SDS011;17114;52.314;8.910;2023-03-01T16:35:50;5.80;;;4.00;;
30307;SDS011;17114;52.314;8.910;2023-03-01T16:38:17;15.10;;;9.40;;
30307;SDS011;17114;52.314;8.910;2023-03-01T16:40:48;12.63;;;8.30;;
30307;SDS011;17114;52.314;8.910;2023-03-01T16:43:15;11.88;;;5.65;;
30307;SDS011;17114;52.314;8.910;2023-03-01T16:45:42;10.27;;;4.95;;
30307;SDS011;17114;52.314;8.910;2023-03-01T16:48:11;8.13;;;5.22;;
30307;SDS011;17114;52.314;8.910;2023-03-01T16:50:38;10.20;;;4.88;;
30307;SDS011;17114;52.314;8.910;2023-03-01T16:53:05;11.02;;;4.85;;
30307;SDS011;17114;52.314;8.910;2023-03-01T16:55:33;9.57;;;4.72;;
30307;SDS011;17114;52.314;8.910;2023-03-01T16:58:00;11.13;;;5.70;;
30307;SDS011;17114;52.314;8.910;2023-03-01T17:00:27;9.35;;;5.32;;
30307;SDS011;17114;52.314;8.910;2023-03-01T17:02:54;9.77;;;5.55;;
30307;SDS011;17114;52.314;8.910;2023-03-01T17:05:21;9.73;;;5.60;;
30307;SDS011;17114;52.314;8.910;2023-03-01T17:07:50;10.52;;;5.38;;
30307;SDS011;17114;52.314;8.910;2023-03-01T17:10:17;9.25;;;5.80;;